createdAt,value
2023-01-27T00:00:38.715Z,100438.00
2023-01-27T00:03:05.841Z,100432.75
2023-01-27T00:05:32.456Z,100438.16
2023-01-27T00:07:59.178Z,100436.50
2023-01-27T00:10:27.355Z,100436.56
2023-01-27T00:13:12.609Z,100430.31
2023-01-27T00:15:39.936Z,100432.91
2023-01-27T00:18:07.091Z,100436.34
2023-01-27T00:20:52.210Z,100429.31
2023-01-27T00:23:38.176Z,100426.63
2023-01-27T00:26:06.894Z,100425.75
2023-01-27T00:28:37.616Z,100422.25
2023-01-27T00:31:05.092Z,100420.44
2023-01-27T00:33:32.138Z,100416.94
2023-01-27T00:36:00.495Z,100415.91
2023-01-27T00:38:32.523Z,100422.09
2023-01-27T00:41:17.486Z,100422.09
2023-01-27T00:43:44.040Z,100426.50
2023-01-27T00:46:10.671Z,100422.97
2023-01-27T00:48:37.392Z,100425.69
2023-01-27T00:51:04.236Z,100421.16
2023-01-27T00:53:31.462Z,100421.97
2023-01-27T00:55:58.621Z,100424.38
2023-01-27T00:58:29.102Z,100423.44
2023-01-27T01:00:59.393Z,100418.19
2023-01-27T01:03:28.486Z,100421.78
2023-01-27T01:05:55.052Z,100425.44
2023-01-27T01:08:21.618Z,100415.84
2023-01-27T01:10:48.201Z,100421.38
2023-01-27T01:13:14.805Z,100431.25
2023-01-27T01:15:42.355Z,100420.59
2023-01-27T01:18:10.742Z,100411.84
2023-01-27T01:20:43.238Z,100421.72
2023-01-27T01:23:10.785Z,100424.44
2023-01-27T01:25:37.636Z,100416.50
2023-01-27T01:28:05.686Z,100418.25
2023-01-27T01:30:34.937Z,100423.53
2023-01-27T01:33:01.928Z,100403.34
2023-01-27T01:35:28.522Z,100408.78
2023-01-27T01:37:55.204Z,100406.19
2023-01-27T01:40:25.514Z,100418.66
2023-01-27T01:43:00.163Z,100417.06
2023-01-27T01:45:33.647Z,100414.44
2023-01-27T01:48:22.073Z,100412.66
2023-01-27T01:50:54.266Z,100410.94
2023-01-27T01:53:27.292Z,100412.78
2023-01-27T01:55:54.012Z,100415.44
2023-01-27T01:58:21.095Z,100416.38
2023-01-27T02:00:47.903Z,100404.06
2023-01-27T02:03:15.134Z,100405.94
2023-01-27T02:05:45.140Z,100404.19
2023-01-27T02:08:24.627Z,100393.88
2023-01-27T02:10:54.403Z,100392.97
2023-01-27T02:13:21.763Z,100392.81
2023-01-27T02:15:50.530Z,100391.94
2023-01-27T02:18:18.163Z,100391.88
2023-01-27T02:20:53.748Z,100386.66
2023-01-27T02:23:32.180Z,100387.47
2023-01-27T02:26:17.796Z,100379.63
2023-01-27T02:28:44.702Z,100378.09
2023-01-27T02:31:11.466Z,100376.63
2023-01-27T02:33:38.140Z,100371.63
2023-01-27T02:36:16.671Z,100366.59
2023-01-27T02:38:50.539Z,100359.66
2023-01-27T02:41:22.764Z,100362.47
2023-01-27T02:43:49.819Z,100356.38
2023-01-27T02:46:16.523Z,100359.38
2023-01-27T02:48:43.205Z,100358.78
2023-01-27T02:51:10.653Z,100356.38
2023-01-27T02:53:37.241Z,100356.38
2023-01-27T02:56:04.009Z,100358.19
2023-01-27T02:58:30.654Z,100344.19
2023-01-27T03:00:57.230Z,100351.34
2023-01-27T03:03:23.913Z,100345.53
2023-01-27T03:05:51.525Z,100348.31
2023-01-27T03:08:19.191Z,100335.28
2023-01-27T03:10:50.780Z,100339.00
2023-01-27T03:13:21.387Z,100338.19
2023-01-27T03:16:06.684Z,100328.50
2023-01-27T03:18:33.380Z,100330.41
2023-01-27T03:21:06.026Z,100332.25
2023-01-27T03:23:36.475Z,100329.59
2023-01-27T03:26:06.912Z,100327.84
2023-01-27T03:28:33.733Z,100327.78
2023-01-27T03:31:08.522Z,100315.66
2023-01-27T03:33:35.371Z,100322.81
2023-01-27T03:36:23.516Z,100316.75
2023-01-27T03:39:08.409Z,100317.53
2023-01-27T03:41:53.843Z,100323.69
2023-01-27T03:44:38.611Z,100318.41
2023-01-27T03:47:05.169Z,100310.38
2023-01-27T03:49:31.756Z,100310.47
2023-01-27T03:51:58.968Z,100306.94
2023-01-27T03:54:25.506Z,100300.66
2023-01-27T03:56:52.057Z,100306.72
2023-01-27T03:59:18.663Z,100297.97
2023-01-27T04:01:45.313Z,100297.09
2023-01-27T04:04:30.429Z,100299.69
2023-01-27T04:07:02.838Z,100292.53
2023-01-27T04:09:35.836Z,100289.88
2023-01-27T04:12:06.877Z,100293.34
2023-01-27T04:14:43.062Z,100288.94
2023-01-27T04:17:15.169Z,100291.69
2023-01-27T04:19:42.052Z,100289.88
2023-01-27T04:22:11.060Z,100288.16
2023-01-27T04:24:37.721Z,100289.09
2023-01-27T04:27:12.759Z,100290.16
2023-01-27T04:29:41.590Z,100297.25
2023-01-27T04:32:10.267Z,100296.44
2023-01-27T04:34:37.475Z,100294.78
2023-01-27T04:37:05.668Z,100294.72
2023-01-27T04:39:32.815Z,100299.28
2023-01-27T04:41:59.516Z,100297.63
2023-01-27T04:44:26.609Z,100297.91
2023-01-27T04:46:54.755Z,100299.94
2023-01-27T04:49:21.357Z,100306.31
2023-01-27T04:51:47.933Z,100306.50
2023-01-27T04:54:14.652Z,100318.13
2023-01-27T04:56:53.549Z,100311.19
2023-01-27T04:59:20.125Z,100309.59
2023-01-27T05:01:46.727Z,100315.94
2023-01-27T05:04:13.261Z,100312.63
2023-01-27T05:06:39.832Z,100315.41
2023-01-27T05:09:06.432Z,100314.72
2023-01-27T05:11:32.966Z,100315.78
2023-01-27T05:13:59.505Z,100313.28
2023-01-27T05:16:27.574Z,100312.28
2023-01-27T05:18:54.666Z,100309.72
2023-01-27T05:21:23.864Z,100304.44
2023-01-27T05:23:50.778Z,100307.25
2023-01-27T05:26:20.377Z,100307.53
2023-01-27T05:28:48.907Z,100309.28
2023-01-27T05:31:21.693Z,100312.03
2023-01-27T05:33:50.874Z,100309.66
2023-01-27T05:36:19.605Z,100310.63
2023-01-27T05:38:46.791Z,100315.19
2023-01-27T05:41:15.119Z,100315.50
2023-01-27T05:43:43.670Z,100314.75
2023-01-27T05:46:16.473Z,100315.00
2023-01-27T05:48:54.497Z,100317.78
2023-01-27T05:51:23.471Z,100310.84
2023-01-27T05:53:50.609Z,100314.31
2023-01-27T05:56:19.623Z,100309.28
2023-01-27T05:58:46.206Z,100311.06
2023-01-27T06:01:13.829Z,100313.75
2023-01-27T06:03:41.286Z,100313.81
2023-01-27T06:06:09.594Z,100307.66
2023-01-27T06:08:37.271Z,100311.06
2023-01-27T06:11:04.543Z,100312.84
2023-01-27T06:13:31.502Z,100304.91
2023-01-27T06:15:58.171Z,100306.63
2023-01-27T06:18:24.852Z,100296.91
2023-01-27T06:20:51.434Z,100296.03
2023-01-27T06:23:18.406Z,100297.75
2023-01-27T06:25:48.048Z,100301.13
2023-01-27T06:28:28.160Z,100306.03
2023-01-27T06:30:56.398Z,100311.03
2023-01-27T06:33:23.384Z,100310.78
2023-01-27T06:35:50.132Z,100307.25
2023-01-27T06:38:16.790Z,100304.56
2023-01-27T06:40:44.312Z,100306.13
2023-01-27T06:43:14.435Z,100304.78
2023-01-27T06:45:41.172Z,100301.78
2023-01-27T06:48:11.237Z,100315.59
2023-01-27T06:50:37.807Z,100314.47
2023-01-27T06:53:07.225Z,100317.78
2023-01-27T06:55:35.571Z,100316.81
2023-01-27T06:58:03.007Z,100312.25
2023-01-27T07:00:30.143Z,100318.19
2023-01-27T07:02:57.344Z,100314.50
2023-01-27T07:05:24.687Z,100319.53
2023-01-27T07:07:51.687Z,100313.00
2023-01-27T07:10:18.375Z,100314.50
2023-01-27T07:12:45.187Z,100316.03
2023-01-27T07:15:12.389Z,100315.66
2023-01-27T07:17:39.096Z,100316.25
2023-01-27T07:20:08.133Z,100316.91
2023-01-27T07:22:34.729Z,100317.50
2023-01-27T07:25:02.159Z,100317.16
2023-01-27T07:27:29.500Z,100318.66
2023-01-27T07:29:56.207Z,100317.47
2023-01-27T07:32:22.792Z,100327.75
2023-01-27T07:34:49.392Z,100324.75
2023-01-27T07:37:15.984Z,100318.25
2023-01-27T07:39:42.550Z,100321.41
2023-01-27T07:42:09.915Z,100317.47
2023-01-27T07:44:36.518Z,100317.19
2023-01-27T07:47:03.176Z,100307.44
2023-01-27T07:49:29.751Z,100298.47
2023-01-27T07:51:56.291Z,100305.44
2023-01-27T07:54:23.088Z,100301.63
2023-01-27T07:56:49.647Z,100304.00
2023-01-27T07:59:16.298Z,100303.81
2023-01-27T08:01:43.320Z,100308.13
2023-01-27T08:04:10.036Z,100318.41
2023-01-27T08:06:39.747Z,100313.06
2023-01-27T08:09:06.951Z,100318.13
2023-01-27T08:11:34.249Z,100313.63
2023-01-27T08:14:01.237Z,100317.88
2023-01-27T08:16:27.948Z,100310.03
2023-01-27T08:18:55.146Z,100315.16
2023-01-27T08:21:21.789Z,100319.63
2023-01-27T08:23:48.423Z,100316.88
2023-01-27T08:26:15.136Z,100309.72
2023-01-27T08:28:42.793Z,100315.88
2023-01-27T08:31:14.975Z,100316.72
2023-01-27T08:33:43.038Z,100316.50
2023-01-27T08:36:15.591Z,100319.94
2023-01-27T08:38:43.707Z,100326.97
2023-01-27T08:41:15.943Z,100320.41
2023-01-27T08:43:43.554Z,100325.47
2023-01-27T08:46:10.761Z,100327.97
2023-01-27T08:48:38.403Z,100334.13
2023-01-27T08:51:06.449Z,100331.47
2023-01-27T08:53:33.621Z,100343.66
2023-01-27T08:56:05.751Z,100335.56
2023-01-27T08:58:33.429Z,100341.63
2023-01-27T09:01:05.614Z,100338.75
2023-01-27T09:03:33.447Z,100344.03
2023-01-27T09:06:00.520Z,100336.00
2023-01-27T09:08:27.774Z,100337.72
2023-01-27T09:10:54.633Z,100341.94
2023-01-27T09:13:24.077Z,100345.38
2023-01-27T09:15:54.475Z,100348.03
2023-01-27T09:18:21.644Z,100352.47
2023-01-27T09:20:48.279Z,100350.75
2023-01-27T09:23:14.915Z,100354.25
2023-01-27T09:25:41.461Z,100352.63
2023-01-27T09:28:16.802Z,100351.63
2023-01-27T09:30:46.832Z,100348.97
2023-01-27T09:33:17.670Z,100353.31
2023-01-27T09:35:52.576Z,100357.53
2023-01-27T09:38:22.164Z,100353.09
2023-01-27T09:41:34.467Z,100354.91
2023-01-27T09:44:28.181Z,100351.16
2023-01-27T09:47:32.369Z,100349.13
2023-01-27T09:50:23.890Z,100357.84
2023-01-27T09:53:27.955Z,100347.88
2023-01-27T09:56:03.341Z,100356.34
2023-01-27T09:58:56.984Z,100344.81
2023-01-27T10:01:45.123Z,100341.38
2023-01-27T10:04:23.451Z,100344.91
2023-01-27T10:07:05.193Z,100340.69
2023-01-27T10:10:09.181Z,100344.91
2023-01-27T10:13:10.883Z,100340.28
2023-01-27T10:16:03.248Z,100347.22
2023-01-27T10:18:32.840Z,100348.88
2023-01-27T10:21:41.363Z,100345.13
2023-01-27T10:24:47.023Z,100347.53
2023-01-27T10:27:21.415Z,100339.94
2023-01-27T10:30:00.470Z,100345.38
2023-01-27T10:32:33.625Z,100341.88
2023-01-27T10:35:11.962Z,100340.06
2023-01-27T10:37:41.191Z,100347.81
2023-01-27T10:40:16.699Z,100349.78
2023-01-27T10:43:13.801Z,100345.50
2023-01-27T10:46:04.698Z,100340.94
2023-01-27T10:48:48.358Z,100336.41
2023-01-27T10:51:23.309Z,100335.72
2023-01-27T10:54:03.228Z,100342.41
2023-01-27T10:56:29.732Z,100330.69
2023-01-27T10:58:56.243Z,100326.25
2023-01-27T11:01:30.952Z,100324.28
2023-01-27T11:04:10.590Z,100325.03
2023-01-27T11:06:41.331Z,100325.84
2023-01-27T11:09:13.795Z,100318.28
2023-01-27T11:11:46.327Z,100320.16
2023-01-27T11:14:46.785Z,100326.06
2023-01-27T11:17:30.133Z,100317.25
2023-01-27T11:19:59.862Z,100320.88
2023-01-27T11:22:37.904Z,100313.59
2023-01-27T11:25:29.028Z,100318.91
2023-01-27T11:28:19.990Z,100315.22
2023-01-27T11:31:24.019Z,100312.22
2023-01-27T11:34:21.338Z,100302.63
2023-01-27T11:36:49.973Z,100305.28
2023-01-27T11:39:18.223Z,100293.72
2023-01-27T11:41:58.709Z,100294.91
2023-01-27T11:44:32.256Z,100289.44
2023-01-27T11:46:59.174Z,100291.06
2023-01-27T11:49:36.557Z,100289.84
2023-01-27T11:52:15.148Z,100278.41
2023-01-27T11:54:47.124Z,100271.63
2023-01-27T11:57:22.494Z,100270.50
2023-01-27T12:00:24.250Z,100259.88
2023-01-27T12:03:01.539Z,100264.34
2023-01-27T12:05:33.650Z,100265.88
2023-01-27T12:08:02.741Z,100256.22
2023-01-27T12:10:44.376Z,100269.06
2023-01-27T12:13:21.561Z,100259.88
2023-01-27T12:15:55.505Z,100253.63
2023-01-27T12:18:25.649Z,100255.25
2023-01-27T12:21:01.406Z,100243.53
2023-01-27T12:23:33.623Z,100245.81
2023-01-27T12:26:03.155Z,100241.78
2023-01-27T12:28:36.675Z,100241.00
2023-01-27T12:31:13.599Z,100239.63
2023-01-27T12:33:46.827Z,100231.19
2023-01-27T12:36:17.019Z,100225.72
2023-01-27T12:38:55.797Z,100216.88
2023-01-27T12:41:28.284Z,100230.94
2023-01-27T12:44:00.380Z,100235.03
2023-01-27T12:46:29.568Z,100225.94
2023-01-27T12:49:05.160Z,100231.91
2023-01-27T12:51:48.344Z,100228.81
2023-01-27T12:54:35.564Z,100230.22
2023-01-27T12:57:05.531Z,100231.25
2023-01-27T12:59:33.232Z,100223.47
2023-01-27T13:02:18.513Z,100229.06
2023-01-27T13:04:52.964Z,100237.41
2023-01-27T13:07:26.403Z,100230.94
2023-01-27T13:09:55.521Z,100226.38
2023-01-27T13:12:23.721Z,100235.50
2023-01-27T13:14:53.450Z,100230.44
2023-01-27T13:17:35.469Z,100233.03
2023-01-27T13:20:08.494Z,100237.09
2023-01-27T13:22:42.381Z,100240.59
2023-01-27T13:25:18.133Z,100245.31
2023-01-27T13:27:46.330Z,100252.63
2023-01-27T13:30:31.863Z,100254.88
2023-01-27T13:33:11.775Z,100255.38
2023-01-27T13:35:56.059Z,100252.72
2023-01-27T13:38:31.452Z,100252.25
2023-01-27T13:40:58.523Z,100246.94
2023-01-27T13:43:36.133Z,100259.63
2023-01-27T13:46:07.540Z,100249.00
2023-01-27T13:48:42.343Z,100249.94
2023-01-27T13:51:14.193Z,100250.78
2023-01-27T13:53:41.618Z,100265.69
2023-01-27T13:56:17.412Z,100254.22
2023-01-27T13:58:54.819Z,100258.00
2023-01-27T14:01:43.302Z,100255.16
2023-01-27T14:04:09.915Z,100248.66
2023-01-27T14:06:36.410Z,100250.06
2023-01-27T14:09:11.791Z,100248.44
2023-01-27T14:11:48.820Z,100246.75
2023-01-27T14:14:33.438Z,100246.34
2023-01-27T14:17:28.791Z,100249.00
2023-01-27T14:20:05.381Z,100250.38
2023-01-27T14:22:50.567Z,100256.38
2023-01-27T14:25:52.535Z,100257.16
2023-01-27T14:29:04.158Z,100253.97
2023-01-27T14:31:59.296Z,100254.25
2023-01-27T14:34:52.076Z,100247.28
2023-01-27T14:37:25.085Z,100245.84
2023-01-27T14:40:29.424Z,100251.41
2023-01-27T14:43:16.266Z,100250.78
2023-01-27T14:46:08.807Z,100252.00
2023-01-27T14:48:57.910Z,100261.31
2023-01-27T14:51:41.788Z,100247.28
2023-01-27T14:54:11.306Z,100249.06
2023-01-27T14:57:12.212Z,100259.00
2023-01-27T14:59:41.605Z,100263.56
2023-01-27T15:02:17.858Z,100258.25
2023-01-27T15:05:13.430Z,100252.41
2023-01-27T15:07:54.357Z,100259.81
2023-01-27T15:10:26.744Z,100251.09
2023-01-27T15:13:20.463Z,100254.50
2023-01-27T15:16:08.417Z,100258.13
2023-01-27T15:19:02.321Z,100252.81
2023-01-27T15:21:44.100Z,100257.78
2023-01-27T15:24:38.175Z,100254.19
2023-01-27T15:27:06.843Z,100257.09
2023-01-27T15:29:33.618Z,100255.19
2023-01-27T15:32:15.263Z,100258.72
2023-01-27T15:34:44.511Z,100263.28
2023-01-27T15:37:21.802Z,100271.38
2023-01-27T15:40:06.645Z,100282.94
2023-01-27T15:43:11.617Z,100281.91
2023-01-27T15:45:43.611Z,100276.59
2023-01-27T15:48:10.176Z,100277.78
2023-01-27T15:50:39.745Z,100281.56
2023-01-27T15:53:15.872Z,100274.34
2023-01-27T15:55:55.008Z,100271.44
2023-01-27T15:58:28.709Z,100266.06
2023-01-27T16:00:57.799Z,100276.06
2023-01-27T16:03:32.491Z,100268.34
2023-01-27T16:06:02.125Z,100277.25
2023-01-27T16:08:37.307Z,100277.50
2023-01-27T16:11:22.389Z,100274.25
2023-01-27T16:13:48.887Z,100283.22
2023-01-27T16:16:18.348Z,100285.16
2023-01-27T16:18:57.461Z,100284.31
2023-01-27T16:21:52.138Z,100280.88
2023-01-27T16:24:43.381Z,100291.38
2023-01-27T16:27:32.439Z,100295.84
2023-01-27T16:30:20.800Z,100303.88
2023-01-27T16:33:21.933Z,100293.53
2023-01-27T16:35:59.855Z,100313.09
2023-01-27T16:38:38.079Z,100300.78
2023-01-27T16:41:16.684Z,100306.06
2023-01-27T16:43:49.806Z,100311.44
2023-01-27T16:46:46.999Z,100321.03
2023-01-27T16:49:25.729Z,100320.09
2023-01-27T16:51:56.818Z,100327.03
2023-01-27T16:54:39.928Z,100326.97
2023-01-27T16:57:08.455Z,100329.78
2023-01-27T16:59:38.552Z,100328.06
2023-01-27T17:02:19.985Z,100325.34
2023-01-27T17:04:53.030Z,100323.63
2023-01-27T17:07:19.816Z,100327.03
2023-01-27T17:09:52.145Z,100327.13
2023-01-27T17:12:36.269Z,100325.56
2023-01-27T17:15:18.124Z,100334.44
2023-01-27T17:17:45.108Z,100336.16
2023-01-27T17:20:26.112Z,100329.16
2023-01-27T17:22:54.569Z,100334.38
2023-01-27T17:25:32.191Z,100338.91
2023-01-27T17:28:01.597Z,100337.19
2023-01-27T17:30:35.292Z,100337.19
2023-01-27T17:33:05.145Z,100330.25
2023-01-27T17:35:35.715Z,100333.91
2023-01-27T17:38:05.102Z,100327.59
2023-01-27T17:40:39.223Z,100328.38
2023-01-27T17:43:28.595Z,100330.00
2023-01-27T17:46:21.674Z,100328.31
2023-01-27T17:48:53.314Z,100332.81
2023-01-27T17:51:23.934Z,100332.72
2023-01-27T17:53:52.440Z,100326.59
2023-01-27T17:56:27.409Z,100339.75
2023-01-27T17:58:58.748Z,100336.25
2023-01-27T18:01:25.393Z,100334.63
2023-01-27T18:03:56.873Z,100333.81
2023-01-27T18:06:27.536Z,100339.03
2023-01-27T18:08:57.359Z,100340.63
2023-01-27T18:11:31.113Z,100340.69
2023-01-27T18:14:08.224Z,100340.63
2023-01-27T18:16:35.344Z,100340.63
2023-01-27T18:19:08.187Z,100345.91
2023-01-27T18:21:36.657Z,100347.56
2023-01-27T18:24:20.147Z,100346.69
2023-01-27T18:26:47.726Z,100353.72
2023-01-27T18:29:29.769Z,100347.56
2023-01-27T18:32:15.606Z,100350.28
2023-01-27T18:34:48.147Z,100342.19
2023-01-27T18:37:33.201Z,100354.34
2023-01-27T18:40:03.529Z,100352.47
2023-01-27T18:42:31.664Z,100348.81
2023-01-27T18:44:58.421Z,100347.94
2023-01-27T18:47:35.690Z,100347.94
2023-01-27T18:50:12.143Z,100345.28
2023-01-27T18:52:39.260Z,100348.03
2023-01-27T18:55:16.972Z,100353.31
2023-01-27T18:57:44.479Z,100350.75
2023-01-27T19:00:14.808Z,100349.84
2023-01-27T19:02:46.440Z,100351.63
2023-01-27T19:05:21.786Z,100349.66
2023-01-27T19:07:48.711Z,100351.47
2023-01-27T19:10:18.918Z,100355.97
2023-01-27T19:12:45.955Z,100350.84
2023-01-27T19:15:14.934Z,100355.22
2023-01-27T19:17:43.670Z,100351.63
2023-01-27T19:20:19.320Z,100357.78
2023-01-27T19:22:47.129Z,100356.78
2023-01-27T19:25:14.229Z,100354.91
2023-01-27T19:27:46.552Z,100357.38
2023-01-27T19:30:37.425Z,100361.75
2023-01-27T19:33:15.481Z,100360.75
2023-01-27T19:35:44.145Z,100362.53
2023-01-27T19:38:12.300Z,100370.41
2023-01-27T19:40:39.298Z,100364.25
2023-01-27T19:43:05.917Z,100368.59
2023-01-27T19:45:32.777Z,100371.38
2023-01-27T19:47:59.977Z,100371.19
2023-01-27T19:50:30.471Z,100372.13
2023-01-27T19:52:58.189Z,100372.28
2023-01-27T19:55:25.762Z,100375.88
2023-01-27T19:57:52.965Z,100377.69
2023-01-27T20:00:22.354Z,100385.72
2023-01-27T20:02:49.129Z,100386.66
2023-01-27T20:05:16.334Z,100382.13
2023-01-27T20:07:44.466Z,100388.19
2023-01-27T20:10:20.738Z,100391.72
2023-01-27T20:13:15.485Z,100389.00
2023-01-27T20:15:42.375Z,100398.66
2023-01-27T20:18:18.965Z,100402.00
2023-01-27T20:20:46.680Z,100398.41
2023-01-27T20:23:16.428Z,100411.47
2023-01-27T20:25:43.269Z,100396.56
2023-01-27T20:28:10.700Z,100401.88
2023-01-27T20:30:38.806Z,100401.88
2023-01-27T20:33:05.896Z,100400.06
2023-01-27T20:35:32.505Z,100398.28
2023-01-27T20:37:59.112Z,100398.34
2023-01-27T20:40:27.986Z,100398.41
2023-01-27T20:42:55.194Z,100395.75
2023-01-27T20:45:22.321Z,100397.66
2023-01-27T20:47:50.534Z,100401.06
2023-01-27T20:50:17.908Z,100404.59
2023-01-27T20:52:44.904Z,100408.97
2023-01-27T20:55:13.784Z,100402.88
2023-01-27T20:57:40.979Z,100404.72
2023-01-27T21:00:08.849Z,100406.75
2023-01-27T21:02:35.420Z,100408.50
2023-01-27T21:05:02.023Z,100408.41
2023-01-27T21:07:28.615Z,100414.41
2023-01-27T21:09:55.189Z,100408.41
2023-01-27T21:12:21.913Z,100406.69
2023-01-27T21:14:48.699Z,100409.25
2023-01-27T21:17:15.498Z,100403.97
2023-01-27T21:19:42.092Z,100408.41
2023-01-27T21:22:08.729Z,100410.97
2023-01-27T21:24:35.653Z,100405.69
2023-01-27T21:27:04.475Z,100406.44
2023-01-27T21:29:31.179Z,100400.38
2023-01-27T21:31:57.799Z,100406.63
2023-01-27T21:34:24.471Z,100403.19
2023-01-27T21:36:51.055Z,100404.84
2023-01-27T21:39:17.587Z,100412.78
2023-01-27T21:41:52.851Z,100405.69
2023-01-27T21:44:46.943Z,100406.38
2023-01-27T21:47:18.901Z,100415.28
2023-01-27T21:50:02.041Z,100411.03
2023-01-27T21:52:39.528Z,100417.22
2023-01-27T21:55:09.697Z,100417.16
2023-01-27T21:57:36.527Z,100419.69
2023-01-27T22:00:06.250Z,100419.81
2023-01-27T22:02:32.997Z,100421.53
2023-01-27T22:04:59.656Z,100419.69
2023-01-27T22:07:27.096Z,100416.22
2023-01-27T22:09:53.666Z,100421.34
2023-01-27T22:12:21.875Z,100413.38
2023-01-27T22:14:48.418Z,100416.03
2023-01-27T22:17:15.492Z,100418.78
2023-01-27T22:19:42.055Z,100417.06
2023-01-27T22:22:11.952Z,100412.78
2023-01-27T22:24:38.656Z,100412.88
2023-01-27T22:27:05.289Z,100415.50
2023-01-27T22:29:31.933Z,100410.28
2023-01-27T22:31:58.533Z,100412.00
2023-01-27T22:34:25.280Z,100412.78
2023-01-27T22:36:52.155Z,100410.03
2023-01-27T22:39:19.263Z,100402.88
2023-01-27T22:41:47.366Z,100409.03
2023-01-27T22:44:14.249Z,100406.53
2023-01-27T22:46:42.639Z,100401.25
2023-01-27T22:49:11.200Z,100404.59
2023-01-27T22:51:37.948Z,100399.34
2023-01-27T22:54:05.283Z,100405.59
2023-01-27T22:56:32.162Z,100400.44
2023-01-27T22:59:01.230Z,100402.19
2023-01-27T23:01:28.178Z,100400.44
2023-01-27T23:03:54.835Z,100403.78
2023-01-27T23:06:21.458Z,100401.06
2023-01-27T23:08:48.129Z,100407.25
2023-01-27T23:11:14.771Z,100401.00
2023-01-27T23:13:41.427Z,100401.88
2023-01-27T23:16:09.582Z,100403.66
2023-01-27T23:18:36.694Z,100404.41
2023-01-27T23:21:06.335Z,100399.22
2023-01-27T23:23:34.063Z,100399.28
2023-01-27T23:26:00.640Z,100395.00
2023-01-27T23:28:27.320Z,100400.28
2023-01-27T23:30:54.061Z,100402.06
2023-01-27T23:33:21.076Z,100399.53
2023-01-27T23:35:48.375Z,100393.41
2023-01-27T23:38:31.307Z,100402.19
2023-01-27T23:41:03.055Z,100395.00
2023-01-27T23:43:32.820Z,100398.47
2023-01-27T23:46:00.274Z,100402.06
2023-01-27T23:48:27.544Z,100406.53
2023-01-27T23:50:55.001Z,100401.44
2023-01-27T23:53:22.073Z,100405.13
2023-01-27T23:55:58.602Z,100409.00
2023-01-27T23:58:26.349Z,100411.03
